sensor_id;sensor_type;location;lat;lon;timestamp;P1;durP1;ratioP1;P2;durP2;ratioP2
15358;SDS011;7779;49.596;11.070;2023-02-11T00:00:34;27.40;;;17.83;;
15358;SDS011;7779;49.596;11.070;2023-02-11T00:03:03;23.77;;;15.90;;
15358;SDS011;7779;49.596;11.070;2023-02-11T00:05:29;30.37;;;17.23;;
15358;SDS011;7779;49.596;11.070;2023-02-11T00:07:55;25.77;;;15.97;;
15358;SDS011;7779;49.596;11.070;2023-02-11T00:10:21;22.77;;;15.07;;
15358;SDS011;7779;49.596;11.070;2023-02-11T00:12:46;23.93;;;16.30;;
15358;SDS011;7779;49.596;11.070;2023-02-11T00:15:12;27.83;;;16.27;;
15358;SDS011;7779;49.596;11.070;2023-02-11T00:17:38;27.03;;;16.63;;
15358;SDS011;7779;49.596;11.070;2023-02-11T00:20:04;25.67;;;16.70;;
15358;SDS011;7779;49.596;11.070;2023-02-11T00:22:30;26.73;;;16.13;;
15358;SDS011;7779;49.596;11.070;2023-02-11T00:24:56;24.77;;;16.07;;
15358;SDS011;7779;49.596;11.070;2023-02-11T00:27:21;25.73;;;16.80;;
15358;SDS011;7779;49.596;11.070;2023-02-11T00:29:47;26.70;;;16.43;;
15358;SDS011;7779;49.596;11.070;2023-02-11T00:32:13;26.97;;;16.43;;
15358;SDS011;7779;49.596;11.070;2023-02-11T00:34:39;24.47;;;16.67;;
15358;SDS011;7779;49.596;11.070;2023-02-11T00:37:04;26.47;;;16.27;;
15358;SDS011;7779;49.596;11.070;2023-02-11T00:39:30;24.53;;;17.17;;
15358;SDS011;7779;49.596;11.070;2023-02-11T00:41:56;24.87;;;17.07;;
15358;SDS011;7779;49.596;11.070;2023-02-11T00:44:22;27.27;;;17.43;;
15358;SDS011;7779;49.596;11.070;2023-02-11T00:46:48;26.70;;;16.40;;
15358;SDS011;7779;49.596;11.070;2023-02-11T00:49:13;23.60;;;16.43;;
15358;SDS011;7779;49.596;11.070;2023-02-11T00:51:40;27.10;;;17.30;;
15358;SDS011;7779;49.596;11.070;2023-02-11T00:54:06;27.20;;;18.00;;
15358;SDS011;7779;49.596;11.070;2023-02-11T00:56:32;30.57;;;18.63;;
15358;SDS011;7779;49.596;11.070;2023-02-11T00:58:57;26.77;;;18.13;;
15358;SDS011;7779;49.596;11.070;2023-02-11T01:01:23;26.90;;;17.70;;
15358;SDS011;7779;49.596;11.070;2023-02-11T01:03:50;26.97;;;17.90;;
15358;SDS011;7779;49.596;11.070;2023-02-11T01:06:16;27.17;;;18.53;;
15358;SDS011;7779;49.596;11.070;2023-02-11T01:08:42;28.70;;;19.13;;
15358;SDS011;7779;49.596;11.070;2023-02-11T01:11:15;26.10;;;18.20;;
15358;SDS011;7779;49.596;11.070;2023-02-11T01:13:44;26.47;;;18.00;;
15358;SDS011;7779;49.596;11.070;2023-02-11T01:16:12;26.00;;;17.00;;
15358;SDS011;7779;49.596;11.070;2023-02-11T01:18:38;26.47;;;17.47;;
15358;SDS011;7779;49.596;11.070;2023-02-11T01:21:08;27.43;;;18.33;;
15358;SDS011;7779;49.596;11.070;2023-02-11T01:23:34;26.70;;;17.73;;
15358;SDS011;7779;49.596;11.070;2023-02-11T01:26:00;28.73;;;17.50;;
15358;SDS011;7779;49.596;11.070;2023-02-11T01:28:28;32.30;;;19.03;;
15358;SDS011;7779;49.596;11.070;2023-02-11T01:30:55;28.43;;;18.17;;
15358;SDS011;7779;49.596;11.070;2023-02-11T01:33:21;27.10;;;18.43;;
15358;SDS011;7779;49.596;11.070;2023-02-11T01:35:48;26.63;;;17.50;;
15358;SDS011;7779;49.596;11.070;2023-02-11T01:38:15;29.00;;;18.30;;
15358;SDS011;7779;49.596;11.070;2023-02-11T01:40:52;28.40;;;18.43;;
15358;SDS011;7779;49.596;11.070;2023-02-11T01:43:24;25.17;;;16.63;;
15358;SDS011;7779;49.596;11.070;2023-02-11T01:48:37;26.03;;;17.30;;
15358;SDS011;7779;49.596;11.070;2023-02-11T01:51:12;24.83;;;16.90;;
15358;SDS011;7779;49.596;11.070;2023-02-11T01:53:45;25.90;;;16.03;;
15358;SDS011;7779;49.596;11.070;2023-02-11T01:56:32;27.00;;;17.77;;
15358;SDS011;7779;49.596;11.070;2023-02-11T02:05:35;26.20;;;17.77;;
15358;SDS011;7779;49.596;11.070;2023-02-11T02:08:43;26.00;;;16.60;;
15358;SDS011;7779;49.596;11.070;2023-02-11T02:11:20;26.70;;;17.60;;
15358;SDS011;7779;49.596;11.070;2023-02-11T02:13:47;26.97;;;16.53;;
15358;SDS011;7779;49.596;11.070;2023-02-11T02:16:14;26.53;;;17.03;;
15358;SDS011;7779;49.596;11.070;2023-02-11T02:21:49;24.00;;;16.67;;
15358;SDS011;7779;49.596;11.070;2023-02-11T02:24:58;24.20;;;16.77;;
15358;SDS011;7779;49.596;11.070;2023-02-11T02:31:03;22.43;;;16.00;;
15358;SDS011;7779;49.596;11.070;2023-02-11T02:34:02;24.10;;;16.67;;
15358;SDS011;7779;49.596;11.070;2023-02-11T02:36:41;27.20;;;16.70;;
15358;SDS011;7779;49.596;11.070;2023-02-11T02:39:20;23.77;;;16.20;;
15358;SDS011;7779;49.596;11.070;2023-02-11T02:41:51;26.20;;;16.40;;
15358;SDS011;7779;49.596;11.070;2023-02-11T02:44:19;24.93;;;16.73;;
15358;SDS011;7779;49.596;11.070;2023-02-11T02:46:45;24.67;;;17.27;;
15358;SDS011;7779;49.596;11.070;2023-02-11T02:49:11;24.47;;;16.43;;
15358;SDS011;7779;49.596;11.070;2023-02-11T02:54:27;30.57;;;17.90;;
15358;SDS011;7779;49.596;11.070;2023-02-11T02:57:21;25.63;;;17.97;;
15358;SDS011;7779;49.596;11.070;2023-02-11T03:06:02;24.13;;;17.30;;
15358;SDS011;7779;49.596;11.070;2023-02-11T03:08:46;26.00;;;16.90;;
15358;SDS011;7779;49.596;11.070;2023-02-11T03:11:21;23.23;;;16.00;;
15358;SDS011;7779;49.596;11.070;2023-02-11T03:13:48;24.40;;;17.50;;
15358;SDS011;7779;49.596;11.070;2023-02-11T03:16:20;24.97;;;17.23;;
15358;SDS011;7779;49.596;11.070;2023-02-11T03:18:57;24.60;;;17.50;;
15358;SDS011;7779;49.596;11.070;2023-02-11T03:21:29;25.50;;;17.37;;
15358;SDS011;7779;49.596;11.070;2023-02-11T03:24:01;23.37;;;16.90;;
15358;SDS011;7779;49.596;11.070;2023-02-11T03:26:35;24.97;;;17.37;;
15358;SDS011;7779;49.596;11.070;2023-02-11T03:29:14;23.80;;;15.93;;
15358;SDS011;7779;49.596;11.070;2023-02-11T03:34:44;23.70;;;16.47;;
15358;SDS011;7779;49.596;11.070;2023-02-11T03:38:06;22.70;;;16.23;;
15358;SDS011;7779;49.596;11.070;2023-02-11T03:40:21;25.37;;;16.97;;
15358;SDS011;7779;49.596;11.070;2023-02-11T03:42:57;25.03;;;17.27;;
15358;SDS011;7779;49.596;11.070;2023-02-11T03:45:41;20.73;;;16.87;;
15358;SDS011;7779;49.596;11.070;2023-02-11T03:48:18;26.53;;;17.97;;
15358;SDS011;7779;49.596;11.070;2023-02-11T03:51:08;25.13;;;17.30;;
15358;SDS011;7779;49.596;11.070;2023-02-11T03:53:37;25.00;;;17.23;;
15358;SDS011;7779;49.596;11.070;2023-02-11T03:56:07;22.13;;;15.07;;
15358;SDS011;7779;49.596;11.070;2023-02-11T03:58:39;23.03;;;15.80;;
15358;SDS011;7779;49.596;11.070;2023-02-11T04:01:05;25.63;;;17.57;;
15358;SDS011;7779;49.596;11.070;2023-02-11T04:03:33;23.30;;;16.77;;
15358;SDS011;7779;49.596;11.070;2023-02-11T04:05:59;25.17;;;17.77;;
15358;SDS011;7779;49.596;11.070;2023-02-11T04:08:25;22.83;;;16.80;;
15358;SDS011;7779;49.596;11.070;2023-02-11T04:10:51;25.60;;;18.13;;
15358;SDS011;7779;49.596;11.070;2023-02-11T04:13:16;24.47;;;17.40;;
15358;SDS011;7779;49.596;11.070;2023-02-11T04:15:42;25.03;;;17.57;;
15358;SDS011;7779;49.596;11.070;2023-02-11T04:18:08;26.57;;;17.80;;
15358;SDS011;7779;49.596;11.070;2023-02-11T04:20:33;23.97;;;17.13;;
15358;SDS011;7779;49.596;11.070;2023-02-11T04:22:59;25.70;;;17.00;;
15358;SDS011;7779;49.596;11.070;2023-02-11T04:25:25;23.77;;;16.40;;
15358;SDS011;7779;49.596;11.070;2023-02-11T04:27:51;25.07;;;16.87;;
15358;SDS011;7779;49.596;11.070;2023-02-11T04:30:17;25.77;;;17.30;;
15358;SDS011;7779;49.596;11.070;2023-02-11T04:32:42;26.63;;;17.50;;
15358;SDS011;7779;49.596;11.070;2023-02-11T04:35:08;29.20;;;17.73;;
15358;SDS011;7779;49.596;11.070;2023-02-11T04:37:34;25.13;;;16.20;;
15358;SDS011;7779;49.596;11.070;2023-02-11T04:39:59;22.70;;;16.47;;
15358;SDS011;7779;49.596;11.070;2023-02-11T04:42:25;22.27;;;16.10;;
15358;SDS011;7779;49.596;11.070;2023-02-11T04:44:51;24.60;;;17.00;;
15358;SDS011;7779;49.596;11.070;2023-02-11T04:47:17;25.37;;;17.40;;
15358;SDS011;7779;49.596;11.070;2023-02-11T04:49:43;23.97;;;17.10;;
15358;SDS011;7779;49.596;11.070;2023-02-11T04:52:08;24.93;;;16.70;;
15358;SDS011;7779;49.596;11.070;2023-02-11T04:54:34;22.70;;;16.57;;
15358;SDS011;7779;49.596;11.070;2023-02-11T04:57:00;23.40;;;15.93;;
15358;SDS011;7779;49.596;11.070;2023-02-11T04:59:26;27.70;;;18.40;;
15358;SDS011;7779;49.596;11.070;2023-02-11T05:01:52;22.60;;;16.60;;
15358;SDS011;7779;49.596;11.070;2023-02-11T05:04:18;26.60;;;18.30;;
15358;SDS011;7779;49.596;11.070;2023-02-11T05:06:43;25.90;;;16.20;;
15358;SDS011;7779;49.596;11.070;2023-02-11T05:09:12;24.70;;;17.90;;
15358;SDS011;7779;49.596;11.070;2023-02-11T05:11:38;22.70;;;17.10;;
15358;SDS011;7779;49.596;11.070;2023-02-11T05:14:05;27.83;;;17.33;;
15358;SDS011;7779;49.596;11.070;2023-02-11T05:16:31;24.23;;;15.80;;
15358;SDS011;7779;49.596;11.070;2023-02-11T05:18:57;25.73;;;18.17;;
15358;SDS011;7779;49.596;11.070;2023-02-11T05:21:23;24.30;;;17.33;;
15358;SDS011;7779;49.596;11.070;2023-02-11T05:23:49;24.27;;;17.37;;
15358;SDS011;7779;49.596;11.070;2023-02-11T05:26:15;23.80;;;17.40;;
15358;SDS011;7779;49.596;11.070;2023-02-11T05:28:42;23.67;;;16.60;;
15358;SDS011;7779;49.596;11.070;2023-02-11T05:31:08;25.93;;;17.67;;
15358;SDS011;7779;49.596;11.070;2023-02-11T05:33:34;26.20;;;17.63;;
15358;SDS011;7779;49.596;11.070;2023-02-11T05:36:01;24.10;;;17.57;;
15358;SDS011;7779;49.596;11.070;2023-02-11T05:38:31;25.20;;;17.53;;
15358;SDS011;7779;49.596;11.070;2023-02-11T05:40:58;25.67;;;17.67;;
15358;SDS011;7779;49.596;11.070;2023-02-11T05:43:24;27.00;;;18.67;;
15358;SDS011;7779;49.596;11.070;2023-02-11T05:45:50;24.73;;;17.13;;
15358;SDS011;7779;49.596;11.070;2023-02-11T05:48:15;23.97;;;17.10;;
15358;SDS011;7779;49.596;11.070;2023-02-11T05:50:41;26.53;;;17.47;;
15358;SDS011;7779;49.596;11.070;2023-02-11T05:53:08;26.13;;;16.80;;
15358;SDS011;7779;49.596;11.070;2023-02-11T05:55:34;25.17;;;17.03;;
15358;SDS011;7779;49.596;11.070;2023-02-11T05:58:00;25.93;;;16.80;;
15358;SDS011;7779;49.596;11.070;2023-02-11T06:00:26;25.23;;;17.17;;
15358;SDS011;7779;49.596;11.070;2023-02-11T06:02:52;24.40;;;17.90;;
15358;SDS011;7779;49.596;11.070;2023-02-11T06:05:17;25.60;;;16.87;;
15358;SDS011;7779;49.596;11.070;2023-02-11T06:07:43;23.43;;;17.10;;
15358;SDS011;7779;49.596;11.070;2023-02-11T06:10:09;28.77;;;17.90;;
15358;SDS011;7779;49.596;11.070;2023-02-11T06:12:36;21.90;;;16.80;;
15358;SDS011;7779;49.596;11.070;2023-02-11T06:15:02;27.37;;;17.63;;
15358;SDS011;7779;49.596;11.070;2023-02-11T06:17:29;22.73;;;16.53;;
15358;SDS011;7779;49.596;11.070;2023-02-11T06:20:00;23.10;;;16.00;;
15358;SDS011;7779;49.596;11.070;2023-02-11T06:22:28;22.10;;;15.50;;
15358;SDS011;7779;49.596;11.070;2023-02-11T06:24:54;26.60;;;17.43;;
15358;SDS011;7779;49.596;11.070;2023-02-11T06:27:19;25.97;;;18.17;;
15358;SDS011;7779;49.596;11.070;2023-02-11T06:29:45;26.23;;;19.33;;
15358;SDS011;7779;49.596;11.070;2023-02-11T06:32:11;27.43;;;17.23;;
15358;SDS011;7779;49.596;11.070;2023-02-11T06:34:38;27.57;;;17.80;;
15358;SDS011;7779;49.596;11.070;2023-02-11T06:37:04;23.63;;;17.50;;
15358;SDS011;7779;49.596;11.070;2023-02-11T06:39:30;26.17;;;17.40;;
15358;SDS011;7779;49.596;11.070;2023-02-11T06:41:56;26.70;;;16.90;;
15358;SDS011;7779;49.596;11.070;2023-02-11T06:44:22;23.70;;;16.43;;
15358;SDS011;7779;49.596;11.070;2023-02-11T06:46:48;21.43;;;15.40;;
15358;SDS011;7779;49.596;11.070;2023-02-11T06:49:13;26.10;;;17.23;;
15358;SDS011;7779;49.596;11.070;2023-02-11T06:51:39;23.93;;;17.17;;
15358;SDS011;7779;49.596;11.070;2023-02-11T06:54:05;25.80;;;16.50;;
15358;SDS011;7779;49.596;11.070;2023-02-11T06:56:31;22.70;;;16.37;;
15358;SDS011;7779;49.596;11.070;2023-02-11T06:58:57;21.77;;;15.60;;
15358;SDS011;7779;49.596;11.070;2023-02-11T07:01:24;24.13;;;16.07;;
15358;SDS011;7779;49.596;11.070;2023-02-11T07:03:51;24.77;;;17.40;;
15358;SDS011;7779;49.596;11.070;2023-02-11T07:06:19;24.37;;;16.43;;
15358;SDS011;7779;49.596;11.070;2023-02-11T07:08:47;23.07;;;15.73;;
15358;SDS011;7779;49.596;11.070;2023-02-11T07:11:14;24.80;;;16.80;;
15358;SDS011;7779;49.596;11.070;2023-02-11T07:13:44;26.97;;;16.10;;
15358;SDS011;7779;49.596;11.070;2023-02-11T07:16:12;25.17;;;16.77;;
15358;SDS011;7779;49.596;11.070;2023-02-11T07:18:40;24.13;;;16.27;;
15358;SDS011;7779;49.596;11.070;2023-02-11T07:21:07;25.23;;;16.57;;
15358;SDS011;7779;49.596;11.070;2023-02-11T07:23:35;23.10;;;16.60;;
15358;SDS011;7779;49.596;11.070;2023-02-11T07:26:04;22.97;;;16.43;;
15358;SDS011;7779;49.596;11.070;2023-02-11T07:28:33;22.60;;;16.53;;
15358;SDS011;7779;49.596;11.070;2023-02-11T07:33:41;23.90;;;17.37;;
15358;SDS011;7779;49.596;11.070;2023-02-11T07:36:08;24.73;;;17.47;;
15358;SDS011;7779;49.596;11.070;2023-02-11T07:38:36;24.80;;;17.20;;
15358;SDS011;7779;49.596;11.070;2023-02-11T07:41:03;22.83;;;16.60;;
15358;SDS011;7779;49.596;11.070;2023-02-11T07:43:32;24.90;;;17.07;;
15358;SDS011;7779;49.596;11.070;2023-02-11T07:46:02;23.53;;;16.90;;
15358;SDS011;7779;49.596;11.070;2023-02-11T07:48:29;22.87;;;16.27;;
15358;SDS011;7779;49.596;11.070;2023-02-11T07:51:03;25.43;;;17.60;;
15358;SDS011;7779;49.596;11.070;2023-02-11T07:53:40;23.80;;;17.60;;
15358;SDS011;7779;49.596;11.070;2023-02-11T07:56:07;23.40;;;16.87;;
15358;SDS011;7779;49.596;11.070;2023-02-11T07:58:35;24.30;;;18.30;;
15358;SDS011;7779;49.596;11.070;2023-02-11T08:01:02;26.47;;;19.43;;
15358;SDS011;7779;49.596;11.070;2023-02-11T08:03:30;25.87;;;18.13;;
15358;SDS011;7779;49.596;11.070;2023-02-11T08:05:57;25.80;;;18.67;;
15358;SDS011;7779;49.596;11.070;2023-02-11T08:08:26;22.57;;;17.77;;
15358;SDS011;7779;49.596;11.070;2023-02-11T08:10:52;26.23;;;17.90;;
15358;SDS011;7779;49.596;11.070;2023-02-11T08:13:18;29.40;;;19.33;;
15358;SDS011;7779;49.596;11.070;2023-02-11T08:15:43;26.27;;;20.33;;
15358;SDS011;7779;49.596;11.070;2023-02-11T08:18:09;31.17;;;21.93;;
15358;SDS011;7779;49.596;11.070;2023-02-11T08:20:35;28.57;;;21.27;;
15358;SDS011;7779;49.596;11.070;2023-02-11T08:23:00;27.03;;;20.13;;
15358;SDS011;7779;49.596;11.070;2023-02-11T08:25:26;26.47;;;20.60;;
15358;SDS011;7779;49.596;11.070;2023-02-11T08:27:52;27.93;;;21.30;;
15358;SDS011;7779;49.596;11.070;2023-02-11T08:30:18;29.60;;;21.17;;
15358;SDS011;7779;49.596;11.070;2023-02-11T08:32:44;28.53;;;20.07;;
15358;SDS011;7779;49.596;11.070;2023-02-11T08:35:10;26.10;;;19.80;;
15358;SDS011;7779;49.596;11.070;2023-02-11T08:37:36;26.43;;;18.60;;
15358;SDS011;7779;49.596;11.070;2023-02-11T08:40:03;24.23;;;18.07;;
15358;SDS011;7779;49.596;11.070;2023-02-11T08:42:29;27.13;;;20.40;;
15358;SDS011;7779;49.596;11.070;2023-02-11T08:44:54;29.67;;;19.37;;
15358;SDS011;7779;49.596;11.070;2023-02-11T08:47:20;27.97;;;18.83;;
15358;SDS011;7779;49.596;11.070;2023-02-11T08:49:46;26.83;;;19.53;;
15358;SDS011;7779;49.596;11.070;2023-02-11T08:52:11;25.73;;;18.67;;
15358;SDS011;7779;49.596;11.070;2023-02-11T08:54:37;26.23;;;19.23;;
15358;SDS011;7779;49.596;11.070;2023-02-11T08:57:03;27.20;;;19.13;;
15358;SDS011;7779;49.596;11.070;2023-02-11T08:59:29;26.80;;;20.27;;
15358;SDS011;7779;49.596;11.070;2023-02-11T09:01:54;25.17;;;18.50;;
15358;SDS011;7779;49.596;11.070;2023-02-11T09:04:21;25.20;;;17.90;;
15358;SDS011;7779;49.596;11.070;2023-02-11T09:06:46;23.17;;;16.53;;
15358;SDS011;7779;49.596;11.070;2023-02-11T09:09:13;23.63;;;17.13;;
15358;SDS011;7779;49.596;11.070;2023-02-11T09:11:40;24.30;;;18.30;;
15358;SDS011;7779;49.596;11.070;2023-02-11T09:14:10;26.80;;;17.77;;
15358;SDS011;7779;49.596;11.070;2023-02-11T09:16:43;25.73;;;19.33;;
15358;SDS011;7779;49.596;11.070;2023-02-11T09:19:09;26.17;;;18.67;;
15358;SDS011;7779;49.596;11.070;2023-02-11T09:21:35;23.80;;;17.60;;
15358;SDS011;7779;49.596;11.070;2023-02-11T09:24:01;24.50;;;17.50;;
15358;SDS011;7779;49.596;11.070;2023-02-11T09:26:29;23.03;;;17.60;;
15358;SDS011;7779;49.596;11.070;2023-02-11T09:28:57;22.00;;;15.97;;
15358;SDS011;7779;49.596;11.070;2023-02-11T09:31:24;19.97;;;15.30;;
15358;SDS011;7779;49.596;11.070;2023-02-11T09:33:53;22.07;;;16.33;;
15358;SDS011;7779;49.596;11.070;2023-02-11T09:36:23;19.83;;;14.60;;
15358;SDS011;7779;49.596;11.070;2023-02-11T09:38:53;21.30;;;14.77;;
15358;SDS011;7779;49.596;11.070;2023-02-11T09:43:48;19.50;;;14.07;;
15358;SDS011;7779;49.596;11.070;2023-02-11T09:46:21;18.03;;;13.27;;
15358;SDS011;7779;49.596;11.070;2023-02-11T09:48:51;19.30;;;13.13;;
15358;SDS011;7779;49.596;11.070;2023-02-11T09:54:12;19.20;;;13.47;;
15358;SDS011;7779;49.596;11.070;2023-02-11T09:56:50;19.53;;;13.53;;
15358;SDS011;7779;49.596;11.070;2023-02-11T09:59:16;20.87;;;14.87;;
15358;SDS011;7779;49.596;11.070;2023-02-11T10:01:58;18.67;;;14.07;;
15358;SDS011;7779;49.596;11.070;2023-02-11T10:05:01;17.23;;;13.60;;
15358;SDS011;7779;49.596;11.070;2023-02-11T10:07:57;18.90;;;13.57;;
15358;SDS011;7779;49.596;11.070;2023-02-11T10:11:17;17.57;;;13.27;;
15358;SDS011;7779;49.596;11.070;2023-02-11T10:20:06;15.57;;;12.13;;
15358;SDS011;7779;49.596;11.070;2023-02-11T10:23:07;15.87;;;11.93;;
15358;SDS011;7779;49.596;11.070;2023-02-11T10:25:42;17.77;;;12.27;;
15358;SDS011;7779;49.596;11.070;2023-02-11T10:28:15;15.53;;;12.40;;
15358;SDS011;7779;49.596;11.070;2023-02-11T10:30:51;16.13;;;11.97;;
15358;SDS011;7779;49.596;11.070;2023-02-11T10:36:29;15.43;;;11.60;;
15358;SDS011;7779;49.596;11.070;2023-02-11T10:38:59;15.73;;;12.63;;
15358;SDS011;7779;49.596;11.070;2023-02-11T10:41:36;16.63;;;12.57;;
15358;SDS011;7779;49.596;11.070;2023-02-11T10:44:18;14.37;;;11.33;;
15358;SDS011;7779;49.596;11.070;2023-02-11T10:46:58;15.07;;;11.87;;
15358;SDS011;7779;49.596;11.070;2023-02-11T10:49:33;15.30;;;11.80;;
15358;SDS011;7779;49.596;11.070;2023-02-11T10:52:13;18.90;;;14.43;;
15358;SDS011;7779;49.596;11.070;2023-02-11T10:55:08;14.60;;;11.07;;
15358;SDS011;7779;49.596;11.070;2023-02-11T10:57:59;15.57;;;11.53;;
15358;SDS011;7779;49.596;11.070;2023-02-11T11:00:34;15.67;;;11.67;;
15358;SDS011;7779;49.596;11.070;2023-02-11T11:03:10;16.77;;;11.10;;
15358;SDS011;7779;49.596;11.070;2023-02-11T11:05:49;13.47;;;11.07;;
15358;SDS011;7779;49.596;11.070;2023-02-11T11:08:37;15.27;;;11.60;;
15358;SDS011;7779;49.596;11.070;2023-02-11T11:11:16;17.67;;;12.13;;
15358;SDS011;7779;49.596;11.070;2023-02-11T11:16:23;15.00;;;12.13;;
15358;SDS011;7779;49.596;11.070;2023-02-11T11:21:44;13.97;;;10.60;;
15358;SDS011;7779;49.596;11.070;2023-02-11T11:24:14;15.23;;;11.70;;
15358;SDS011;7779;49.596;11.070;2023-02-11T11:26:51;16.33;;;11.23;;
15358;SDS011;7779;49.596;11.070;2023-02-11T11:32:10;13.57;;;10.50;;
15358;SDS011;7779;49.596;11.070;2023-02-11T11:34:49;13.73;;;10.20;;
15358;SDS011;7779;49.596;11.070;2023-02-11T11:37:23;14.83;;;10.57;;
15358;SDS011;7779;49.596;11.070;2023-02-11T11:39:55;14.67;;;11.33;;
15358;SDS011;7779;49.596;11.070;2023-02-11T11:42:41;13.10;;;10.67;;
15358;SDS011;7779;49.596;11.070;2023-02-11T11:48:03;13.53;;;10.73;;
15358;SDS011;7779;49.596;11.070;2023-02-11T11:50:47;15.33;;;10.90;;
15358;SDS011;7779;49.596;11.070;2023-02-11T11:56:13;16.63;;;10.90;;
15358;SDS011;7779;49.596;11.070;2023-02-11T11:58:54;15.40;;;11.13;;
15358;SDS011;7779;49.596;11.070;2023-02-11T12:01:28;13.60;;;10.83;;
15358;SDS011;7779;49.596;11.070;2023-02-11T12:07:31;15.20;;;11.30;;
15358;SDS011;7779;49.596;11.070;2023-02-11T12:10:35;14.47;;;10.63;;
15358;SDS011;7779;49.596;11.070;2023-02-11T12:16:16;13.90;;;10.77;;
15358;SDS011;7779;49.596;11.070;2023-02-11T12:19:14;13.77;;;10.60;;
15358;SDS011;7779;49.596;11.070;2023-02-11T12:22:11;15.00;;;10.27;;
15358;SDS011;7779;49.596;11.070;2023-02-11T12:27:54;16.73;;;11.50;;
15358;SDS011;7779;49.596;11.070;2023-02-11T12:30:43;14.13;;;10.00;;
15358;SDS011;7779;49.596;11.070;2023-02-11T12:33:27;14.07;;;10.93;;
15358;SDS011;7779;49.596;11.070;2023-02-11T12:39:33;15.57;;;11.17;;
15358;SDS011;7779;49.596;11.070;2023-02-11T12:42:18;15.43;;;11.80;;
15358;SDS011;7779;49.596;11.070;2023-02-11T12:51:44;14.93;;;11.13;;
15358;SDS011;7779;49.596;11.070;2023-02-11T12:54:43;15.17;;;11.90;;
15358;SDS011;7779;49.596;11.070;2023-02-11T12:59:59;16.50;;;11.83;;
15358;SDS011;7779;49.596;11.070;2023-02-11T13:03:10;15.13;;;11.97;;
15358;SDS011;7779;49.596;11.070;2023-02-11T13:05:32;16.37;;;11.53;;
15358;SDS011;7779;49.596;11.070;2023-02-11T13:08:34;14.40;;;10.70;;
15358;SDS011;7779;49.596;11.070;2023-02-11T13:16:45;14.00;;;11.53;;
15358;SDS011;7779;49.596;11.070;2023-02-11T13:19:31;14.93;;;11.20;;
15358;SDS011;7779;49.596;11.070;2023-02-11T13:22:26;14.03;;;10.57;;
15358;SDS011;7779;49.596;11.070;2023-02-11T13:28:15;14.27;;;11.27;;
15358;SDS011;7779;49.596;11.070;2023-02-11T13:31:00;15.97;;;11.03;;
15358;SDS011;7779;49.596;11.070;2023-02-11T13:33:35;14.67;;;11.13;;
15358;SDS011;7779;49.596;11.070;2023-02-11T13:36:13;14.17;;;11.23;;
15358;SDS011;7779;49.596;11.070;2023-02-11T13:38:53;18.63;;;12.00;;
15358;SDS011;7779;49.596;11.070;2023-02-11T13:41:44;17.83;;;11.60;;
15358;SDS011;7779;49.596;11.070;2023-02-11T13:49:34;16.50;;;11.83;;
15358;SDS011;7779;49.596;11.070;2023-02-11T13:55:00;14.73;;;10.70;;
15358;SDS011;7779;49.596;11.070;2023-02-11T13:57:40;15.33;;;10.70;;
15358;SDS011;7779;49.596;11.070;2023-02-11T14:00:42;13.47;;;10.57;;
15358;SDS011;7779;49.596;11.070;2023-02-11T14:03:16;14.40;;;11.03;;
15358;SDS011;7779;49.596;11.070;2023-02-11T14:06:20;13.43;;;10.33;;
15358;SDS011;7779;49.596;11.070;2023-02-11T14:09:37;16.33;;;11.73;;
15358;SDS011;7779;49.596;11.070;2023-02-11T14:12:21;14.43;;;11.33;;
15358;SDS011;7779;49.596;11.070;2023-02-11T14:14:56;15.30;;;10.80;;
15358;SDS011;7779;49.596;11.070;2023-02-11T14:17:42;15.13;;;10.30;;
15358;SDS011;7779;49.596;11.070;2023-02-11T14:20:31;14.80;;;11.00;;
15358;SDS011;7779;49.596;11.070;2023-02-11T14:23:05;14.30;;;10.40;;
15358;SDS011;7779;49.596;11.070;2023-02-11T14:25:31;14.30;;;10.77;;
15358;SDS011;7779;49.596;11.070;2023-02-11T14:28:00;13.70;;;10.97;;
15358;SDS011;7779;49.596;11.070;2023-02-11T14:30:36;12.97;;;9.93;;
15358;SDS011;7779;49.596;11.070;2023-02-11T14:33:44;13.13;;;10.20;;
15358;SDS011;7779;49.596;11.070;2023-02-11T14:42:14;11.87;;;9.87;;
15358;SDS011;7779;49.596;11.070;2023-02-11T14:44:45;13.73;;;10.00;;
15358;SDS011;7779;49.596;11.070;2023-02-11T14:47:18;13.83;;;10.13;;
15358;SDS011;7779;49.596;11.070;2023-02-11T14:49:54;13.97;;;10.80;;
15358;SDS011;7779;49.596;11.070;2023-02-11T14:52:30;12.63;;;10.30;;
15358;SDS011;7779;49.596;11.070;2023-02-11T15:01:21;15.13;;;10.83;;
15358;SDS011;7779;49.596;11.070;2023-02-11T15:03:59;13.20;;;10.73;;
15358;SDS011;7779;49.596;11.070;2023-02-11T15:06:29;15.17;;;11.23;;
15358;SDS011;7779;49.596;11.070;2023-02-11T15:09:12;13.03;;;10.47;;
15358;SDS011;7779;49.596;11.070;2023-02-11T15:11:52;14.83;;;10.80;;
15358;SDS011;7779;49.596;11.070;2023-02-11T15:14:22;14.63;;;10.77;;
15358;SDS011;7779;49.596;11.070;2023-02-11T15:16:56;15.80;;;11.23;;
15358;SDS011;7779;49.596;11.070;2023-02-11T15:19:30;13.90;;;11.23;;
15358;SDS011;7779;49.596;11.070;2023-02-11T15:22:01;14.40;;;11.23;;
15358;SDS011;7779;49.596;11.070;2023-02-11T15:24:31;16.20;;;11.20;;
15358;SDS011;7779;49.596;11.070;2023-02-11T15:27:03;14.27;;;11.10;;
15358;SDS011;7779;49.596;11.070;2023-02-11T15:29:41;14.60;;;10.37;;
15358;SDS011;7779;49.596;11.070;2023-02-11T15:34:41;16.20;;;10.87;;
15358;SDS011;7779;49.596;11.070;2023-02-11T15:37:29;13.43;;;10.67;;
15358;SDS011;7779;49.596;11.070;2023-02-11T15:40:06;13.77;;;10.70;;
15358;SDS011;7779;49.596;11.070;2023-02-11T15:48:16;14.07;;;11.33;;
15358;SDS011;7779;49.596;11.070;2023-02-11T15:50:49;14.33;;;11.03;;
15358;SDS011;7779;49.596;11.070;2023-02-11T15:53:38;14.20;;;10.03;;
15358;SDS011;7779;49.596;11.070;2023-02-11T15:58:39;14.13;;;11.00;;
15358;SDS011;7779;49.596;11.070;2023-02-11T16:01:08;13.53;;;10.93;;
15358;SDS011;7779;49.596;11.070;2023-02-11T16:03:35;14.07;;;11.20;;
15358;SDS011;7779;49.596;11.070;2023-02-11T16:06:14;13.13;;;11.00;;
15358;SDS011;7779;49.596;11.070;2023-02-11T16:08:54;15.20;;;11.70;;
15358;SDS011;7779;49.596;11.070;2023-02-11T16:17:07;17.17;;;12.90;;
15358;SDS011;7779;49.596;11.070;2023-02-11T16:19:48;16.43;;;12.53;;
15358;SDS011;7779;49.596;11.070;2023-02-11T16:22:27;19.13;;;13.57;;
15358;SDS011;7779;49.596;11.070;2023-02-11T16:24:59;16.90;;;12.87;;
15358;SDS011;7779;49.596;11.070;2023-02-11T16:27:26;17.30;;;12.90;;
15358;SDS011;7779;49.596;11.070;2023-02-11T16:30:02;18.40;;;12.90;;
15358;SDS011;7779;49.596;11.070;2023-02-11T16:32:29;17.40;;;12.37;;
15358;SDS011;7779;49.596;11.070;2023-02-11T16:34:56;17.77;;;12.67;;
15358;SDS011;7779;49.596;11.070;2023-02-11T16:37:25;16.73;;;12.33;;
15358;SDS011;7779;49.596;11.070;2023-02-11T16:39:54;16.67;;;12.50;;
15358;SDS011;7779;49.596;11.070;2023-02-11T16:42:20;16.93;;;12.77;;
15358;SDS011;7779;49.596;11.070;2023-02-11T16:44:47;16.30;;;11.80;;
15358;SDS011;7779;49.596;11.070;2023-02-11T16:47:21;14.27;;;10.67;;
15358;SDS011;7779;49.596;11.070;2023-02-11T16:49:50;19.83;;;13.53;;
15358;SDS011;7779;49.596;11.070;2023-02-11T16:52:16;17.33;;;13.03;;
15358;SDS011;7779;49.596;11.070;2023-02-11T16:54:44;20.97;;;15.83;;
15358;SDS011;7779;49.596;11.070;2023-02-11T16:57:12;23.50;;;18.00;;